<?xml version="1.0" encoding="utf-8"?>
<gpx xmlns:xsi="http://www.w3.org/2001/XMLSchema-instance" xmlns:xsd="http://www.w3.org/2001/XMLSchema" version="1.1" creator="Shapelink.com" xmlns="http://www.topografix.com/GPX/1/1" xmlns:gpxtpx="http://www.garmin.com/xmlschemas/TrackPointExtension/v1">
  <metadata>
    <name>Aerobic 5.85 km, 2014-06-07</name>
    <desc></desc>
    <author><name>Carl Grundberg</name></author> 
    <time>2014-06-07T12:37:30Z</time>
  </metadata>
  <trk>
    <name>Aerobic 5.85 km, 2014-06-07</name>
    <trkseg>
      <trkpt lat="56.3485268" lon="13.6442549">
        <ele>109.247</ele>
        <time>2014-06-07T12:37:30Z</time>
      </trkpt>
      <trkpt lat="56.3481294" lon="13.6447633">
        <ele>113.573</ele>
        <time>2014-06-07T12:37:33Z</time>
      </trkpt>
      <trkpt lat="56.3477933" lon="13.6447806">
        <ele>113.573</ele>
        <time>2014-06-07T12:37:39Z</time>
      </trkpt>
      <trkpt lat="56.3474113" lon="13.6446915">
        <ele>115.496</ele>
        <time>2014-06-07T12:37:46Z</time>
      </trkpt>
      <trkpt lat="56.3473576" lon="13.6446678">
        <ele>115.496</ele>
        <time>2014-06-07T12:37:47Z</time>
      </trkpt>
      <trkpt lat="56.346964" lon="13.6443464">
        <ele>117.418</ele>
        <time>2014-06-07T12:37:55Z</time>
      </trkpt>
      <trkpt lat="56.3466241" lon="13.6439915">
        <ele>118.379</ele>
        <time>2014-06-07T12:38:02Z</time>
      </trkpt>
      <trkpt lat="56.3463717" lon="13.6435934">
        <ele>118.86</ele>
        <time>2014-06-07T12:38:08Z</time>
      </trkpt>
      <trkpt lat="56.3461568" lon="13.6430436">
        <ele>119.821</ele>
        <time>2014-06-07T12:38:15Z</time>
      </trkpt>
      <trkpt lat="56.3459454" lon="13.6424784">
        <ele>120.783</ele>
        <time>2014-06-07T12:38:22Z</time>
      </trkpt>
      <trkpt lat="56.345776" lon="13.6420014">
        <ele>120.783</ele>
        <time>2014-06-07T12:38:28Z</time>
      </trkpt>
      <trkpt lat="56.3456829" lon="13.6416853">
        <ele>120.783</ele>
        <time>2014-06-07T12:38:32Z</time>
      </trkpt>
      <trkpt lat="56.3456249" lon="13.6410495">
        <ele>119.821</ele>
        <time>2014-06-07T12:38:39Z</time>
      </trkpt>
      <trkpt lat="56.3455855" lon="13.6403623">
        <ele>118.86</ele>
        <time>2014-06-07T12:38:46Z</time>
      </trkpt>
      <trkpt lat="56.3455527" lon="13.6397994">
        <ele>118.379</ele>
        <time>2014-06-07T12:38:52Z</time>
      </trkpt>
      <trkpt lat="56.3455" lon="13.6390012">
        <ele>119.341</ele>
        <time>2014-06-07T12:39:01Z</time>
      </trkpt>
      <trkpt lat="56.3455155" lon="13.6386386">
        <ele>119.821</ele>
        <time>2014-06-07T12:39:05Z</time>
      </trkpt>
      <trkpt lat="56.3456021" lon="13.6383117">
        <ele>119.341</ele>
        <time>2014-06-07T12:39:09Z</time>
      </trkpt>
      <trkpt lat="56.3455617" lon="13.6380164">
        <ele>118.86</ele>
        <time>2014-06-07T12:39:13Z</time>
      </trkpt>
      <trkpt lat="56.3454931" lon="13.6378156">
        <ele>118.86</ele>
        <time>2014-06-07T12:39:16Z</time>
      </trkpt>
      <trkpt lat="56.3455144" lon="13.6375699">
        <ele>118.86</ele>
        <time>2014-06-07T12:39:19Z</time>
      </trkpt>
      <trkpt lat="56.3454845" lon="13.636668">
        <ele>118.86</ele>
        <time>2014-06-07T12:39:29Z</time>
      </trkpt>
      <trkpt lat="56.3454064" lon="13.6357652">
        <ele>117.899</ele>
        <time>2014-06-07T12:39:39Z</time>
      </trkpt>
      <trkpt lat="56.3452657" lon="13.6354005">
        <ele>117.899</ele>
        <time>2014-06-07T12:39:44Z</time>
      </trkpt>
      <trkpt lat="56.345045" lon="13.6351234">
        <ele>117.899</ele>
        <time>2014-06-07T12:39:49Z</time>
      </trkpt>
      <trkpt lat="56.3448613" lon="13.6347732">
        <ele>118.86</ele>
        <time>2014-06-07T12:39:54Z</time>
      </trkpt>
      <trkpt lat="56.3446317" lon="13.6344681">
        <ele>118.379</ele>
        <time>2014-06-07T12:40:00Z</time>
      </trkpt>
      <trkpt lat="56.3442789" lon="13.6341708">
        <ele>118.86</ele>
        <time>2014-06-07T12:40:08Z</time>
      </trkpt>
      <trkpt lat="56.3441868" lon="13.6341193">
        <ele>119.341</ele>
        <time>2014-06-07T12:40:10Z</time>
      </trkpt>
      <trkpt lat="56.343931" lon="13.6340525">
        <ele>119.341</ele>
        <time>2014-06-07T12:40:15Z</time>
      </trkpt>
      <trkpt lat="56.3437554" lon="13.6340512">
        <ele>118.86</ele>
        <time>2014-06-07T12:40:18Z</time>
      </trkpt>
      <trkpt lat="56.3434351" lon="13.6341702">
        <ele>117.418</ele>
        <time>2014-06-07T12:40:23Z</time>
      </trkpt>
      <trkpt lat="56.343371" lon="13.6342039">
        <ele>117.418</ele>
        <time>2014-06-07T12:40:24Z</time>
      </trkpt>
      <trkpt lat="56.3432006" lon="13.6341077">
        <ele>115.976</ele>
        <time>2014-06-07T12:40:28Z</time>
      </trkpt>
      <trkpt lat="56.3430929" lon="13.6338656">
        <ele>115.976</ele>
        <time>2014-06-07T12:40:32Z</time>
      </trkpt>
      <trkpt lat="56.3430602" lon="13.6338382">
        <ele>115.976</ele>
        <time>2014-06-07T12:40:33Z</time>
      </trkpt>
      <trkpt lat="56.3429809" lon="13.6337792">
        <ele>116.457</ele>
        <time>2014-06-07T12:40:39Z</time>
      </trkpt>
      <trkpt lat="56.3429774" lon="13.6337795">
        <ele>115.976</ele>
        <time>2014-06-07T12:40:41Z</time>
      </trkpt>
      <trkpt lat="56.3429364" lon="13.6337481">
        <ele>115.976</ele>
        <time>2014-06-07T12:40:44Z</time>
      </trkpt>
      <trkpt lat="56.3428321" lon="13.6336148">
        <ele>115.976</ele>
        <time>2014-06-07T12:40:49Z</time>
      </trkpt>
      <trkpt lat="56.3427448" lon="13.6334562">
        <ele>114.534</ele>
        <time>2014-06-07T12:40:53Z</time>
      </trkpt>
      <trkpt lat="56.3425961" lon="13.633214">
        <ele>114.534</ele>
        <time>2014-06-07T12:40:59Z</time>
      </trkpt>
      <trkpt lat="56.3424897" lon="13.6330025">
        <ele>115.015</ele>
        <time>2014-06-07T12:41:04Z</time>
      </trkpt>
      <trkpt lat="56.3423902" lon="13.6328675">
        <ele>115.496</ele>
        <time>2014-06-07T12:41:08Z</time>
      </trkpt>
      <trkpt lat="56.3422619" lon="13.6326968">
        <ele>115.015</ele>
        <time>2014-06-07T12:41:13Z</time>
      </trkpt>
      <trkpt lat="56.3421185" lon="13.6325691">
        <ele>114.534</ele>
        <time>2014-06-07T12:41:18Z</time>
      </trkpt>
      <trkpt lat="56.3419455" lon="13.6324514">
        <ele>114.534</ele>
        <time>2014-06-07T12:41:24Z</time>
      </trkpt>
      <trkpt lat="56.3417782" lon="13.6322634">
        <ele>114.054</ele>
        <time>2014-06-07T12:41:30Z</time>
      </trkpt>
      <trkpt lat="56.3417552" lon="13.6322351">
        <ele>114.534</ele>
        <time>2014-06-07T12:41:31Z</time>
      </trkpt>
      <trkpt lat="56.3416143" lon="13.6321251">
        <ele>115.976</ele>
        <time>2014-06-07T12:41:36Z</time>
      </trkpt>
      <trkpt lat="56.3415845" lon="13.6321043">
        <ele>115.976</ele>
        <time>2014-06-07T12:41:37Z</time>
      </trkpt>
      <trkpt lat="56.3414545" lon="13.6320242">
        <ele>116.938</ele>
        <time>2014-06-07T12:41:42Z</time>
      </trkpt>
      <trkpt lat="56.3412927" lon="13.6319785">
        <ele>118.379</ele>
        <time>2014-06-07T12:41:47Z</time>
      </trkpt>
      <trkpt lat="56.3411677" lon="13.6318644">
        <ele>117.899</ele>
        <time>2014-06-07T12:41:51Z</time>
      </trkpt>
      <trkpt lat="56.3410417" lon="13.6316313">
        <ele>119.341</ele>
        <time>2014-06-07T12:41:57Z</time>
      </trkpt>
      <trkpt lat="56.3409868" lon="13.6314714">
        <ele>120.302</ele>
        <time>2014-06-07T12:42:02Z</time>
      </trkpt>
      <trkpt lat="56.3409425" lon="13.631322">
        <ele>119.821</ele>
        <time>2014-06-07T12:42:06Z</time>
      </trkpt>
      <trkpt lat="56.3409013" lon="13.6311407">
        <ele>120.302</ele>
        <time>2014-06-07T12:42:10Z</time>
      </trkpt>
      <trkpt lat="56.3408784" lon="13.6310508">
        <ele>121.264</ele>
        <time>2014-06-07T12:42:12Z</time>
      </trkpt>
      <trkpt lat="56.3407535" lon="13.6307317">
        <ele>121.264</ele>
        <time>2014-06-07T12:42:19Z</time>
      </trkpt>
      <trkpt lat="56.3406604" lon="13.6305714">
        <ele>121.264</ele>
        <time>2014-06-07T12:42:23Z</time>
      </trkpt>
      <trkpt lat="56.3405582" lon="13.6304029">
        <ele>120.302</ele>
        <time>2014-06-07T12:42:28Z</time>
      </trkpt>
      <trkpt lat="56.3404655" lon="13.6302721">
        <ele>120.302</ele>
        <time>2014-06-07T12:42:32Z</time>
      </trkpt>
      <trkpt lat="56.3403764" lon="13.6301425">
        <ele>120.783</ele>
        <time>2014-06-07T12:42:36Z</time>
      </trkpt>
      <trkpt lat="56.3402964" lon="13.630004">
        <ele>122.225</ele>
        <time>2014-06-07T12:42:41Z</time>
      </trkpt>
      <trkpt lat="56.3402241" lon="13.6298543">
        <ele>124.147</ele>
        <time>2014-06-07T12:42:45Z</time>
      </trkpt>
      <trkpt lat="56.3401672" lon="13.6297426">
        <ele>125.589</ele>
        <time>2014-06-07T12:42:49Z</time>
      </trkpt>
      <trkpt lat="56.340081" lon="13.6295173">
        <ele>127.031</ele>
        <time>2014-06-07T12:42:55Z</time>
      </trkpt>
      <trkpt lat="56.3400271" lon="13.6293926">
        <ele>127.993</ele>
        <time>2014-06-07T12:42:59Z</time>
      </trkpt>
      <trkpt lat="56.3399712" lon="13.6293072">
        <ele>128.473</ele>
        <time>2014-06-07T12:43:02Z</time>
      </trkpt>
      <trkpt lat="56.3398149" lon="13.6291155">
        <ele>129.915</ele>
        <time>2014-06-07T12:43:09Z</time>
      </trkpt>
      <trkpt lat="56.3397122" lon="13.6290248">
        <ele>130.396</ele>
        <time>2014-06-07T12:43:13Z</time>
      </trkpt>
      <trkpt lat="56.3395636" lon="13.6288782">
        <ele>130.877</ele>
        <time>2014-06-07T12:43:19Z</time>
      </trkpt>
      <trkpt lat="56.3394532" lon="13.628761">
        <ele>131.357</ele>
        <time>2014-06-07T12:43:24Z</time>
      </trkpt>
      <trkpt lat="56.3393622" lon="13.6286408">
        <ele>131.838</ele>
        <time>2014-06-07T12:43:28Z</time>
      </trkpt>
      <trkpt lat="56.3393192" lon="13.6285814">
        <ele>132.319</ele>
        <time>2014-06-07T12:43:30Z</time>
      </trkpt>
      <trkpt lat="56.3392026" lon="13.6283778">
        <ele>133.76</ele>
        <time>2014-06-07T12:43:36Z</time>
      </trkpt>
      <trkpt lat="56.3390845" lon="13.6282406">
        <ele>134.241</ele>
        <time>2014-06-07T12:43:41Z</time>
      </trkpt>
      <trkpt lat="56.3389788" lon="13.6281456">
        <ele>134.241</ele>
        <time>2014-06-07T12:43:46Z</time>
      </trkpt>
      <trkpt lat="56.3389043" lon="13.6280589">
        <ele>134.722</ele>
        <time>2014-06-07T12:43:49Z</time>
      </trkpt>
      <trkpt lat="56.3388007" lon="13.6278798">
        <ele>134.241</ele>
        <time>2014-06-07T12:43:54Z</time>
      </trkpt>
      <trkpt lat="56.3387254" lon="13.6276809">
        <ele>134.241</ele>
        <time>2014-06-07T12:43:59Z</time>
      </trkpt>
      <trkpt lat="56.3386582" lon="13.627495">
        <ele>134.722</ele>
        <time>2014-06-07T12:44:03Z</time>
      </trkpt>
      <trkpt lat="56.3385982" lon="13.6273315">
        <ele>134.241</ele>
        <time>2014-06-07T12:44:07Z</time>
      </trkpt>
      <trkpt lat="56.3385432" lon="13.6271893">
        <ele>133.76</ele>
        <time>2014-06-07T12:44:11Z</time>
      </trkpt>
      <trkpt lat="56.3385207" lon="13.6271103">
        <ele>133.28</ele>
        <time>2014-06-07T12:44:13Z</time>
      </trkpt>
      <trkpt lat="56.3384992" lon="13.6270368">
        <ele>132.319</ele>
        <time>2014-06-07T12:44:15Z</time>
      </trkpt>
      <trkpt lat="56.3384499" lon="13.6268144">
        <ele>131.357</ele>
        <time>2014-06-07T12:44:21Z</time>
      </trkpt>
      <trkpt lat="56.338409" lon="13.626674">
        <ele>131.838</ele>
        <time>2014-06-07T12:44:26Z</time>
      </trkpt>
      <trkpt lat="56.3383981" lon="13.6266359">
        <ele>131.357</ele>
        <time>2014-06-07T12:44:27Z</time>
      </trkpt>
      <trkpt lat="56.3383028" lon="13.626371">
        <ele>130.396</ele>
        <time>2014-06-07T12:44:33Z</time>
      </trkpt>
      <trkpt lat="56.3382231" lon="13.6261523">
        <ele>129.915</ele>
        <time>2014-06-07T12:44:38Z</time>
      </trkpt>
      <trkpt lat="56.3381196" lon="13.6258689">
        <ele>130.396</ele>
        <time>2014-06-07T12:44:44Z</time>
      </trkpt>
      <trkpt lat="56.3380494" lon="13.6256013">
        <ele>131.838</ele>
        <time>2014-06-07T12:44:50Z</time>
      </trkpt>
      <trkpt lat="56.3380152" lon="13.6254619">
        <ele>132.319</ele>
        <time>2014-06-07T12:44:53Z</time>
      </trkpt>
      <trkpt lat="56.3379791" lon="13.625209">
        <ele>132.319</ele>
        <time>2014-06-07T12:44:59Z</time>
      </trkpt>
      <trkpt lat="56.3379459" lon="13.6250261">
        <ele>132.799</ele>
        <time>2014-06-07T12:45:03Z</time>
      </trkpt>
      <trkpt lat="56.337887" lon="13.6248852">
        <ele>132.799</ele>
        <time>2014-06-07T12:45:07Z</time>
      </trkpt>
      <trkpt lat="56.3377495" lon="13.6246079">
        <ele>132.319</ele>
        <time>2014-06-07T12:45:14Z</time>
      </trkpt>
      <trkpt lat="56.3376644" lon="13.624354">
        <ele>132.319</ele>
        <time>2014-06-07T12:45:20Z</time>
      </trkpt>
      <trkpt lat="56.3376035" lon="13.6241664">
        <ele>132.799</ele>
        <time>2014-06-07T12:45:25Z</time>
      </trkpt>
      <trkpt lat="56.3375551" lon="13.6239925">
        <ele>132.799</ele>
        <time>2014-06-07T12:45:30Z</time>
      </trkpt>
      <trkpt lat="56.3374645" lon="13.623808">
        <ele>133.28</ele>
        <time>2014-06-07T12:45:35Z</time>
      </trkpt>
      <trkpt lat="56.337357" lon="13.6236005">
        <ele>133.28</ele>
        <time>2014-06-07T12:45:40Z</time>
      </trkpt>
      <trkpt lat="56.3372725" lon="13.6233892">
        <ele>132.799</ele>
        <time>2014-06-07T12:45:45Z</time>
      </trkpt>
      <trkpt lat="56.3371485" lon="13.6231233">
        <ele>132.799</ele>
        <time>2014-06-07T12:45:51Z</time>
      </trkpt>
      <trkpt lat="56.3370829" lon="13.6228605">
        <ele>132.799</ele>
        <time>2014-06-07T12:45:56Z</time>
      </trkpt>
      <trkpt lat="56.3370554" lon="13.6226481">
        <ele>133.28</ele>
        <time>2014-06-07T12:46:01Z</time>
      </trkpt>
      <trkpt lat="56.3369814" lon="13.6223435">
        <ele>133.76</ele>
        <time>2014-06-07T12:46:07Z</time>
      </trkpt>
      <trkpt lat="56.3368831" lon="13.62217">
        <ele>132.799</ele>
        <time>2014-06-07T12:46:11Z</time>
      </trkpt>
      <trkpt lat="56.3367481" lon="13.6219751">
        <ele>132.799</ele>
        <time>2014-06-07T12:46:16Z</time>
      </trkpt>
      <trkpt lat="56.3366069" lon="13.6218182">
        <ele>132.799</ele>
        <time>2014-06-07T12:46:21Z</time>
      </trkpt>
      <trkpt lat="56.3364839" lon="13.6216647">
        <ele>132.799</ele>
        <time>2014-06-07T12:46:26Z</time>
      </trkpt>
      <trkpt lat="56.3363484" lon="13.6214646">
        <ele>132.799</ele>
        <time>2014-06-07T12:46:32Z</time>
      </trkpt>
      <trkpt lat="56.3362634" lon="13.6213366">
        <ele>132.799</ele>
        <time>2014-06-07T12:46:36Z</time>
      </trkpt>
      <trkpt lat="56.3361975" lon="13.6212193">
        <ele>132.319</ele>
        <time>2014-06-07T12:46:39Z</time>
      </trkpt>
      <trkpt lat="56.3360638" lon="13.6210385">
        <ele>132.319</ele>
        <time>2014-06-07T12:46:44Z</time>
      </trkpt>
      <trkpt lat="56.3359718" lon="13.6208832">
        <ele>131.838</ele>
        <time>2014-06-07T12:46:48Z</time>
      </trkpt>
      <trkpt lat="56.3358506" lon="13.6206538">
        <ele>130.396</ele>
        <time>2014-06-07T12:46:54Z</time>
      </trkpt>
      <trkpt lat="56.3357293" lon="13.6204352">
        <ele>129.435</ele>
        <time>2014-06-07T12:47:00Z</time>
      </trkpt>
      <trkpt lat="56.335614" lon="13.6202436">
        <ele>128.473</ele>
        <time>2014-06-07T12:47:06Z</time>
      </trkpt>
      <trkpt lat="56.335486" lon="13.6201145">
        <ele>127.512</ele>
        <time>2014-06-07T12:47:11Z</time>
      </trkpt>
      <trkpt lat="56.3353813" lon="13.6200576">
        <ele>127.512</ele>
        <time>2014-06-07T12:47:15Z</time>
      </trkpt>
      <trkpt lat="56.3352596" lon="13.6199514">
        <ele>127.512</ele>
        <time>2014-06-07T12:47:20Z</time>
      </trkpt>
      <trkpt lat="56.3351336" lon="13.6198362">
        <ele>126.551</ele>
        <time>2014-06-07T12:47:25Z</time>
      </trkpt>
      <trkpt lat="56.3350093" lon="13.6196981">
        <ele>126.07</ele>
        <time>2014-06-07T12:47:30Z</time>
      </trkpt>
      <trkpt lat="56.3348467" lon="13.619581">
        <ele>125.109</ele>
        <time>2014-06-07T12:47:36Z</time>
      </trkpt>
      <trkpt lat="56.3346933" lon="13.6194835">
        <ele>124.628</ele>
        <time>2014-06-07T12:47:42Z</time>
      </trkpt>
      <trkpt lat="56.3345669" lon="13.61938">
        <ele>124.628</ele>
        <time>2014-06-07T12:47:47Z</time>
      </trkpt>
      <trkpt lat="56.3344044" lon="13.6192078">
        <ele>124.147</ele>
        <time>2014-06-07T12:47:53Z</time>
      </trkpt>
      <trkpt lat="56.334281" lon="13.6190628">
        <ele>125.109</ele>
        <time>2014-06-07T12:47:58Z</time>
      </trkpt>
      <trkpt lat="56.3341407" lon="13.6189053">
        <ele>125.109</ele>
        <time>2014-06-07T12:48:04Z</time>
      </trkpt>
      <trkpt lat="56.3340059" lon="13.6187515">
        <ele>125.109</ele>
        <time>2014-06-07T12:48:09Z</time>
      </trkpt>
      <trkpt lat="56.3338535" lon="13.618623">
        <ele>125.109</ele>
        <time>2014-06-07T12:48:14Z</time>
      </trkpt>
      <trkpt lat="56.3337046" lon="13.6185248">
        <ele>125.589</ele>
        <time>2014-06-07T12:48:19Z</time>
      </trkpt>
      <trkpt lat="56.3335857" lon="13.6184967">
        <ele>126.551</ele>
        <time>2014-06-07T12:48:23Z</time>
      </trkpt>
      <trkpt lat="56.3334759" lon="13.6184943">
        <ele>127.031</ele>
        <time>2014-06-07T12:48:27Z</time>
      </trkpt>
      <trkpt lat="56.3333698" lon="13.6185086">
        <ele>127.031</ele>
        <time>2014-06-07T12:48:31Z</time>
      </trkpt>
      <trkpt lat="56.3332388" lon="13.6185754">
        <ele>127.512</ele>
        <time>2014-06-07T12:48:36Z</time>
      </trkpt>
      <trkpt lat="56.3331409" lon="13.6186235">
        <ele>127.993</ele>
        <time>2014-06-07T12:48:40Z</time>
      </trkpt>
      <trkpt lat="56.3330704" lon="13.6186341">
        <ele>127.993</ele>
        <time>2014-06-07T12:48:43Z</time>
      </trkpt>
      <trkpt lat="56.3329123" lon="13.6186273">
        <ele>130.396</ele>
        <time>2014-06-07T12:48:48Z</time>
      </trkpt>
      <trkpt lat="56.3327964" lon="13.6185842">
        <ele>130.396</ele>
        <time>2014-06-07T12:48:52Z</time>
      </trkpt>
      <trkpt lat="56.3327416" lon="13.6185526">
        <ele>130.396</ele>
        <time>2014-06-07T12:48:54Z</time>
      </trkpt>
      <trkpt lat="56.3325849" lon="13.6185129">
        <ele>130.396</ele>
        <time>2014-06-07T12:48:59Z</time>
      </trkpt>
      <trkpt lat="56.332451" lon="13.6184783">
        <ele>129.915</ele>
        <time>2014-06-07T12:49:03Z</time>
      </trkpt>
      <trkpt lat="56.3322391" lon="13.6183901">
        <ele>129.915</ele>
        <time>2014-06-07T12:49:10Z</time>
      </trkpt>
      <trkpt lat="56.3320759" lon="13.6182989">
        <ele>130.396</ele>
        <time>2014-06-07T12:49:16Z</time>
      </trkpt>
      <trkpt lat="56.3319387" lon="13.6182441">
        <ele>130.877</ele>
        <time>2014-06-07T12:49:21Z</time>
      </trkpt>
      <trkpt lat="56.3318743" lon="13.6182451">
        <ele>130.396</ele>
        <time>2014-06-07T12:49:23Z</time>
      </trkpt>
      <trkpt lat="56.3317509" lon="13.6183932">
        <ele>130.877</ele>
        <time>2014-06-07T12:49:28Z</time>
      </trkpt>
      <trkpt lat="56.3316338" lon="13.6186015">
        <ele>130.877</ele>
        <time>2014-06-07T12:49:34Z</time>
      </trkpt>
      <trkpt lat="56.3315108" lon="13.6188248">
        <ele>129.915</ele>
        <time>2014-06-07T12:49:40Z</time>
      </trkpt>
      <trkpt lat="56.3313922" lon="13.6190217">
        <ele>128.473</ele>
        <time>2014-06-07T12:49:45Z</time>
      </trkpt>
      <trkpt lat="56.3312575" lon="13.6191862">
        <ele>127.031</ele>
        <time>2014-06-07T12:49:51Z</time>
      </trkpt>
      <trkpt lat="56.3311179" lon="13.6192982">
        <ele>125.109</ele>
        <time>2014-06-07T12:49:57Z</time>
      </trkpt>
      <trkpt lat="56.3310678" lon="13.6193487">
        <ele>125.109</ele>
        <time>2014-06-07T12:50:03Z</time>
      </trkpt>
      <trkpt lat="56.331161" lon="13.6192886">
        <ele>123.186</ele>
        <time>2014-06-07T12:50:08Z</time>
      </trkpt>
      <trkpt lat="56.3312148" lon="13.6192235">
        <ele>122.705</ele>
        <time>2014-06-07T12:50:10Z</time>
      </trkpt>
      <trkpt lat="56.3313978" lon="13.6190061">
        <ele>120.783</ele>
        <time>2014-06-07T12:50:18Z</time>
      </trkpt>
      <trkpt lat="56.3314888" lon="13.6188092">
        <ele>120.783</ele>
        <time>2014-06-07T12:50:23Z</time>
      </trkpt>
      <trkpt lat="56.3315827" lon="13.6186134">
        <ele>119.341</ele>
        <time>2014-06-07T12:50:29Z</time>
      </trkpt>
      <trkpt lat="56.3316801" lon="13.6183953">
        <ele>119.341</ele>
        <time>2014-06-07T12:50:35Z</time>
      </trkpt>
      <trkpt lat="56.331733" lon="13.6182724">
        <ele>119.341</ele>
        <time>2014-06-07T12:50:38Z</time>
      </trkpt>
      <trkpt lat="56.3318624" lon="13.6182621">
        <ele>119.821</ele>
        <time>2014-06-07T12:50:43Z</time>
      </trkpt>
      <trkpt lat="56.3319531" lon="13.6183217">
        <ele>119.821</ele>
        <time>2014-06-07T12:50:48Z</time>
      </trkpt>
      <trkpt lat="56.3320519" lon="13.6183552">
        <ele>118.86</ele>
        <time>2014-06-07T12:50:53Z</time>
      </trkpt>
      <trkpt lat="56.3322079" lon="13.6184222">
        <ele>119.341</ele>
        <time>2014-06-07T12:50:59Z</time>
      </trkpt>
      <trkpt lat="56.3322777" lon="13.6185019">
        <ele>117.899</ele>
        <time>2014-06-07T12:51:04Z</time>
      </trkpt>
      <trkpt lat="56.332322" lon="13.618521">
        <ele>118.379</ele>
        <time>2014-06-07T12:51:06Z</time>
      </trkpt>
      <trkpt lat="56.3324503" lon="13.6185517">
        <ele>117.418</ele>
        <time>2014-06-07T12:51:11Z</time>
      </trkpt>
      <trkpt lat="56.3325965" lon="13.6185894">
        <ele>117.899</ele>
        <time>2014-06-07T12:51:16Z</time>
      </trkpt>
      <trkpt lat="56.3326824" lon="13.6186002">
        <ele>117.899</ele>
        <time>2014-06-07T12:51:19Z</time>
      </trkpt>
      <trkpt lat="56.3328279" lon="13.618645">
        <ele>118.379</ele>
        <time>2014-06-07T12:51:24Z</time>
      </trkpt>
      <trkpt lat="56.3328819" lon="13.6186188">
        <ele>118.379</ele>
        <time>2014-06-07T12:51:26Z</time>
      </trkpt>
      <trkpt lat="56.3329761" lon="13.6185766">
        <ele>118.86</ele>
        <time>2014-06-07T12:51:29Z</time>
      </trkpt>
      <trkpt lat="56.3330693" lon="13.6185243">
        <ele>118.86</ele>
        <time>2014-06-07T12:51:32Z</time>
      </trkpt>
      <trkpt lat="56.3332772" lon="13.6184568">
        <ele>118.86</ele>
        <time>2014-06-07T12:51:39Z</time>
      </trkpt>
      <trkpt lat="56.3334527" lon="13.6184776">
        <ele>118.379</ele>
        <time>2014-06-07T12:51:44Z</time>
      </trkpt>
      <trkpt lat="56.333576" lon="13.6185455">
        <ele>118.86</ele>
        <time>2014-06-07T12:51:48Z</time>
      </trkpt>
      <trkpt lat="56.3337185" lon="13.6186313">
        <ele>119.821</ele>
        <time>2014-06-07T12:51:53Z</time>
      </trkpt>
      <trkpt lat="56.333746" lon="13.6186527">
        <ele>119.821</ele>
        <time>2014-06-07T12:51:54Z</time>
      </trkpt>
      <trkpt lat="56.3338312" lon="13.618762">
        <ele>120.783</ele>
        <time>2014-06-07T12:51:58Z</time>
      </trkpt>
      <trkpt lat="56.3339076" lon="13.6188905">
        <ele>119.341</ele>
        <time>2014-06-07T12:52:03Z</time>
      </trkpt>
      <trkpt lat="56.333966" lon="13.6189458">
        <ele>119.341</ele>
        <time>2014-06-07T12:52:05Z</time>
      </trkpt>
      <trkpt lat="56.334143" lon="13.619122">
        <ele>119.341</ele>
        <time>2014-06-07T12:52:11Z</time>
      </trkpt>
      <trkpt lat="56.3342991" lon="13.6192434">
        <ele>120.783</ele>
        <time>2014-06-07T12:52:16Z</time>
      </trkpt>
      <trkpt lat="56.3344678" lon="13.6193635">
        <ele>121.744</ele>
        <time>2014-06-07T12:52:21Z</time>
      </trkpt>
      <trkpt lat="56.3345751" lon="13.6194457">
        <ele>121.264</ele>
        <time>2014-06-07T12:52:25Z</time>
      </trkpt>
      <trkpt lat="56.3347157" lon="13.619538">
        <ele>122.705</ele>
        <time>2014-06-07T12:52:30Z</time>
      </trkpt>
      <trkpt lat="56.3347742" lon="13.6196103">
        <ele>123.186</ele>
        <time>2014-06-07T12:52:33Z</time>
      </trkpt>
      <trkpt lat="56.334844" lon="13.619663">
        <ele>123.667</ele>
        <time>2014-06-07T12:52:36Z</time>
      </trkpt>
      <trkpt lat="56.3349441" lon="13.6197536">
        <ele>124.628</ele>
        <time>2014-06-07T12:52:40Z</time>
      </trkpt>
      <trkpt lat="56.3350859" lon="13.6198453">
        <ele>125.589</ele>
        <time>2014-06-07T12:52:45Z</time>
      </trkpt>
      <trkpt lat="56.335217" lon="13.6199447">
        <ele>126.07</ele>
        <time>2014-06-07T12:52:50Z</time>
      </trkpt>
      <trkpt lat="56.3352443" lon="13.6199714">
        <ele>126.07</ele>
        <time>2014-06-07T12:52:51Z</time>
      </trkpt>
      <trkpt lat="56.3353917" lon="13.6200942">
        <ele>126.07</ele>
        <time>2014-06-07T12:52:57Z</time>
      </trkpt>
      <trkpt lat="56.3354911" lon="13.6202136">
        <ele>126.07</ele>
        <time>2014-06-07T12:53:01Z</time>
      </trkpt>
      <trkpt lat="56.3356185" lon="13.6204159">
        <ele>127.512</ele>
        <time>2014-06-07T12:53:07Z</time>
      </trkpt>
      <trkpt lat="56.3357454" lon="13.6206223">
        <ele>127.512</ele>
        <time>2014-06-07T12:53:12Z</time>
      </trkpt>
      <trkpt lat="56.3358967" lon="13.6208683">
        <ele>127.031</ele>
        <time>2014-06-07T12:53:18Z</time>
      </trkpt>
      <trkpt lat="56.3359468" lon="13.6209335">
        <ele>127.512</ele>
        <time>2014-06-07T12:53:20Z</time>
      </trkpt>
      <trkpt lat="56.3360501" lon="13.6210331">
        <ele>127.993</ele>
        <time>2014-06-07T12:53:24Z</time>
      </trkpt>
      <trkpt lat="56.3361363" lon="13.6211692">
        <ele>128.473</ele>
        <time>2014-06-07T12:53:29Z</time>
      </trkpt>
      <trkpt lat="56.3362089" lon="13.6212521">
        <ele>128.954</ele>
        <time>2014-06-07T12:53:32Z</time>
      </trkpt>
      <trkpt lat="56.3363168" lon="13.6213861">
        <ele>129.435</ele>
        <time>2014-06-07T12:53:36Z</time>
      </trkpt>
      <trkpt lat="56.3364282" lon="13.6214987">
        <ele>129.915</ele>
        <time>2014-06-07T12:53:40Z</time>
      </trkpt>
      <trkpt lat="56.336466" lon="13.6215468">
        <ele>130.396</ele>
        <time>2014-06-07T12:53:42Z</time>
      </trkpt>
      <trkpt lat="56.3366322" lon="13.6217261">
        <ele>130.877</ele>
        <time>2014-06-07T12:53:48Z</time>
      </trkpt>
      <trkpt lat="56.3367126" lon="13.6217976">
        <ele>130.877</ele>
        <time>2014-06-07T12:53:51Z</time>
      </trkpt>
      <trkpt lat="56.3368357" lon="13.6220365">
        <ele>134.241</ele>
        <time>2014-06-07T12:53:58Z</time>
      </trkpt>
      <trkpt lat="56.3368699" lon="13.6222564">
        <ele>135.203</ele>
        <time>2014-06-07T12:54:03Z</time>
      </trkpt>
      <trkpt lat="56.3368843" lon="13.6223371">
        <ele>135.203</ele>
        <time>2014-06-07T12:54:05Z</time>
      </trkpt>
      <trkpt lat="56.336919" lon="13.6225206">
        <ele>135.203</ele>
        <time>2014-06-07T12:54:09Z</time>
      </trkpt>
      <trkpt lat="56.3369845" lon="13.6227562">
        <ele>135.683</ele>
        <time>2014-06-07T12:54:14Z</time>
      </trkpt>
      <trkpt lat="56.3370031" lon="13.6228327">
        <ele>135.683</ele>
        <time>2014-06-07T12:54:16Z</time>
      </trkpt>
      <trkpt lat="56.3370694" lon="13.622979">
        <ele>134.241</ele>
        <time>2014-06-07T12:54:20Z</time>
      </trkpt>
      <trkpt lat="56.3370876" lon="13.6230175">
        <ele>134.241</ele>
        <time>2014-06-07T12:54:21Z</time>
      </trkpt>
      <trkpt lat="56.3371167" lon="13.6230848">
        <ele>134.241</ele>
        <time>2014-06-07T12:54:23Z</time>
      </trkpt>
      <trkpt lat="56.3371602" lon="13.6232485">
        <ele>134.241</ele>
        <time>2014-06-07T12:54:27Z</time>
      </trkpt>
      <trkpt lat="56.3372419" lon="13.6234277">
        <ele>133.28</ele>
        <time>2014-06-07T12:54:32Z</time>
      </trkpt>
      <trkpt lat="56.3372773" lon="13.6235557">
        <ele>133.76</ele>
        <time>2014-06-07T12:54:36Z</time>
      </trkpt>
      <trkpt lat="56.3373508" lon="13.6237428">
        <ele>132.799</ele>
        <time>2014-06-07T12:54:40Z</time>
      </trkpt>
      <trkpt lat="56.3374719" lon="13.6239924">
        <ele>132.799</ele>
        <time>2014-06-07T12:54:46Z</time>
      </trkpt>
      <trkpt lat="56.3376195" lon="13.624287">
        <ele>133.76</ele>
        <time>2014-06-07T12:54:53Z</time>
      </trkpt>
      <trkpt lat="56.3377112" lon="13.6244252">
        <ele>134.722</ele>
        <time>2014-06-07T12:54:57Z</time>
      </trkpt>
      <trkpt lat="56.3377318" lon="13.6244566">
        <ele>135.203</ele>
        <time>2014-06-07T12:54:58Z</time>
      </trkpt>
      <trkpt lat="56.337791" lon="13.6246031">
        <ele>135.203</ele>
        <time>2014-06-07T12:55:02Z</time>
      </trkpt>
      <trkpt lat="56.3378556" lon="13.6248495">
        <ele>135.203</ele>
        <time>2014-06-07T12:55:07Z</time>
      </trkpt>
      <trkpt lat="56.3379173" lon="13.6252459">
        <ele>136.645</ele>
        <time>2014-06-07T12:55:14Z</time>
      </trkpt>
      <trkpt lat="56.3379677" lon="13.6254983">
        <ele>137.606</ele>
        <time>2014-06-07T12:55:19Z</time>
      </trkpt>
      <trkpt lat="56.3380821" lon="13.6257671">
        <ele>137.606</ele>
        <time>2014-06-07T12:55:25Z</time>
      </trkpt>
      <trkpt lat="56.3381612" lon="13.6259246">
        <ele>136.164</ele>
        <time>2014-06-07T12:55:29Z</time>
      </trkpt>
      <trkpt lat="56.3382086" lon="13.626138">
        <ele>135.203</ele>
        <time>2014-06-07T12:55:34Z</time>
      </trkpt>
      <trkpt lat="56.3382629" lon="13.6263714">
        <ele>134.241</ele>
        <time>2014-06-07T12:55:39Z</time>
      </trkpt>
      <trkpt lat="56.3383348" lon="13.6266273">
        <ele>133.76</ele>
        <time>2014-06-07T12:55:44Z</time>
      </trkpt>
      <trkpt lat="56.3383457" lon="13.6266824">
        <ele>133.76</ele>
        <time>2014-06-07T12:55:45Z</time>
      </trkpt>
      <trkpt lat="56.3384053" lon="13.6269363">
        <ele>134.241</ele>
        <time>2014-06-07T12:55:50Z</time>
      </trkpt>
      <trkpt lat="56.3384918" lon="13.6271476">
        <ele>133.76</ele>
        <time>2014-06-07T12:55:55Z</time>
      </trkpt>
      <trkpt lat="56.3385555" lon="13.6273245">
        <ele>133.76</ele>
        <time>2014-06-07T12:55:59Z</time>
      </trkpt>
      <trkpt lat="56.3385669" lon="13.6273594">
        <ele>133.76</ele>
        <time>2014-06-07T12:56:00Z</time>
      </trkpt>
      <trkpt lat="56.3386328" lon="13.6275136">
        <ele>134.241</ele>
        <time>2014-06-07T12:56:04Z</time>
      </trkpt>
      <trkpt lat="56.3387307" lon="13.6276692">
        <ele>135.203</ele>
        <time>2014-06-07T12:56:09Z</time>
      </trkpt>
      <trkpt lat="56.3388066" lon="13.6277742">
        <ele>135.203</ele>
        <time>2014-06-07T12:56:13Z</time>
      </trkpt>
      <trkpt lat="56.338886" lon="13.6279119">
        <ele>135.683</ele>
        <time>2014-06-07T12:56:17Z</time>
      </trkpt>
      <trkpt lat="56.3390093" lon="13.6281023">
        <ele>135.203</ele>
        <time>2014-06-07T12:56:22Z</time>
      </trkpt>
      <trkpt lat="56.3391047" lon="13.6282712">
        <ele>135.683</ele>
        <time>2014-06-07T12:56:27Z</time>
      </trkpt>
      <trkpt lat="56.3392019" lon="13.6283592">
        <ele>135.683</ele>
        <time>2014-06-07T12:56:31Z</time>
      </trkpt>
      <trkpt lat="56.3393462" lon="13.6284862">
        <ele>134.722</ele>
        <time>2014-06-07T12:56:36Z</time>
      </trkpt>
      <trkpt lat="56.3394975" lon="13.6286364">
        <ele>133.76</ele>
        <time>2014-06-07T12:56:41Z</time>
      </trkpt>
      <trkpt lat="56.3395895" lon="13.6287353">
        <ele>131.838</ele>
        <time>2014-06-07T12:56:44Z</time>
      </trkpt>
      <trkpt lat="56.3396546" lon="13.6288021">
        <ele>131.838</ele>
        <time>2014-06-07T12:56:46Z</time>
      </trkpt>
      <trkpt lat="56.3397137" lon="13.6288772">
        <ele>131.838</ele>
        <time>2014-06-07T12:56:48Z</time>
      </trkpt>
      <trkpt lat="56.3398874" lon="13.6291611">
        <ele>131.838</ele>
        <time>2014-06-07T12:56:53Z</time>
      </trkpt>
      <trkpt lat="56.33996" lon="13.629275">
        <ele>131.838</ele>
        <time>2014-06-07T12:56:55Z</time>
      </trkpt>
      <trkpt lat="56.3401278" lon="13.6296398">
        <ele>131.357</ele>
        <time>2014-06-07T12:57:02Z</time>
      </trkpt>
      <trkpt lat="56.3401621" lon="13.6297298">
        <ele>131.357</ele>
        <time>2014-06-07T12:57:04Z</time>
      </trkpt>
      <trkpt lat="56.3402541" lon="13.6299045">
        <ele>131.357</ele>
        <time>2014-06-07T12:57:09Z</time>
      </trkpt>
      <trkpt lat="56.3403681" lon="13.6300127">
        <ele>132.319</ele>
        <time>2014-06-07T12:57:13Z</time>
      </trkpt>
      <trkpt lat="56.3404711" lon="13.630205">
        <ele>131.838</ele>
        <time>2014-06-07T12:57:18Z</time>
      </trkpt>
      <trkpt lat="56.3405105" lon="13.6302726">
        <ele>131.357</ele>
        <time>2014-06-07T12:57:20Z</time>
      </trkpt>
      <trkpt lat="56.34061" lon="13.6304297">
        <ele>130.877</ele>
        <time>2014-06-07T12:57:24Z</time>
      </trkpt>
      <trkpt lat="56.3406581" lon="13.6305227">
        <ele>130.396</ele>
        <time>2014-06-07T12:57:26Z</time>
      </trkpt>
      <trkpt lat="56.3407327" lon="13.6308063">
        <ele>129.915</ele>
        <time>2014-06-07T12:57:31Z</time>
      </trkpt>
      <trkpt lat="56.3407624" lon="13.630925">
        <ele>129.915</ele>
        <time>2014-06-07T12:57:33Z</time>
      </trkpt>
      <trkpt lat="56.3408028" lon="13.631146">
        <ele>129.915</ele>
        <time>2014-06-07T12:57:37Z</time>
      </trkpt>
      <trkpt lat="56.3409111" lon="13.6314242">
        <ele>128.473</ele>
        <time>2014-06-07T12:57:42Z</time>
      </trkpt>
      <trkpt lat="56.3409229" lon="13.6314699">
        <ele>128.473</ele>
        <time>2014-06-07T12:57:43Z</time>
      </trkpt>
      <trkpt lat="56.340969" lon="13.6316373">
        <ele>128.954</ele>
        <time>2014-06-07T12:57:47Z</time>
      </trkpt>
      <trkpt lat="56.3411097" lon="13.6317967">
        <ele>129.915</ele>
        <time>2014-06-07T12:57:53Z</time>
      </trkpt>
      <trkpt lat="56.3411374" lon="13.6318118">
        <ele>129.435</ele>
        <time>2014-06-07T12:57:54Z</time>
      </trkpt>
      <trkpt lat="56.3412699" lon="13.6318893">
        <ele>128.473</ele>
        <time>2014-06-07T12:57:59Z</time>
      </trkpt>
      <trkpt lat="56.3413954" lon="13.631964">
        <ele>127.031</ele>
        <time>2014-06-07T12:58:04Z</time>
      </trkpt>
      <trkpt lat="56.3414529" lon="13.6319983">
        <ele>126.551</ele>
        <time>2014-06-07T12:58:06Z</time>
      </trkpt>
      <trkpt lat="56.3416446" lon="13.6321831">
        <ele>124.147</ele>
        <time>2014-06-07T12:58:13Z</time>
      </trkpt>
      <trkpt lat="56.341763" lon="13.6323027">
        <ele>123.667</ele>
        <time>2014-06-07T12:58:18Z</time>
      </trkpt>
      <trkpt lat="56.3418736" lon="13.6323778">
        <ele>123.667</ele>
        <time>2014-06-07T12:58:22Z</time>
      </trkpt>
      <trkpt lat="56.3420714" lon="13.632511">
        <ele>123.667</ele>
        <time>2014-06-07T12:58:28Z</time>
      </trkpt>
      <trkpt lat="56.3421937" lon="13.6326452">
        <ele>123.186</ele>
        <time>2014-06-07T12:58:32Z</time>
      </trkpt>
      <trkpt lat="56.342308" lon="13.6328147">
        <ele>124.628</ele>
        <time>2014-06-07T12:58:37Z</time>
      </trkpt>
      <trkpt lat="56.3423417" lon="13.6328561">
        <ele>124.628</ele>
        <time>2014-06-07T12:58:38Z</time>
      </trkpt>
      <trkpt lat="56.3424247" lon="13.6330279">
        <ele>125.589</ele>
        <time>2014-06-07T12:58:42Z</time>
      </trkpt>
      <trkpt lat="56.3425529" lon="13.6332534">
        <ele>125.589</ele>
        <time>2014-06-07T12:58:48Z</time>
      </trkpt>
      <trkpt lat="56.3425731" lon="13.6332951">
        <ele>125.589</ele>
        <time>2014-06-07T12:58:49Z</time>
      </trkpt>
      <trkpt lat="56.3427059" lon="13.6335075">
        <ele>125.589</ele>
        <time>2014-06-07T12:58:54Z</time>
      </trkpt>
      <trkpt lat="56.3427741" lon="13.6335848">
        <ele>125.589</ele>
        <time>2014-06-07T12:58:56Z</time>
      </trkpt>
      <trkpt lat="56.3428183" lon="13.633631">
        <ele>125.109</ele>
        <time>2014-06-07T12:58:58Z</time>
      </trkpt>
      <trkpt lat="56.3428318" lon="13.6336703">
        <ele>125.109</ele>
        <time>2014-06-07T12:59:00Z</time>
      </trkpt>
      <trkpt lat="56.3428768" lon="13.6336958">
        <ele>125.109</ele>
        <time>2014-06-07T12:59:05Z</time>
      </trkpt>
      <trkpt lat="56.3429287" lon="13.6337438">
        <ele>124.628</ele>
        <time>2014-06-07T12:59:09Z</time>
      </trkpt>
      <trkpt lat="56.3430653" lon="13.6338727">
        <ele>124.147</ele>
        <time>2014-06-07T12:59:14Z</time>
      </trkpt>
      <trkpt lat="56.3430973" lon="13.6339721">
        <ele>123.186</ele>
        <time>2014-06-07T12:59:16Z</time>
      </trkpt>
      <trkpt lat="56.3431769" lon="13.6342883">
        <ele>122.705</ele>
        <time>2014-06-07T12:59:23Z</time>
      </trkpt>
      <trkpt lat="56.3432389" lon="13.6345956">
        <ele>121.744</ele>
        <time>2014-06-07T12:59:28Z</time>
      </trkpt>
      <trkpt lat="56.3433476" lon="13.6350766">
        <ele>120.302</ele>
        <time>2014-06-07T12:59:35Z</time>
      </trkpt>
      <trkpt lat="56.3434108" lon="13.6353496">
        <ele>119.821</ele>
        <time>2014-06-07T12:59:39Z</time>
      </trkpt>
      <trkpt lat="56.3435385" lon="13.6359849">
        <ele>118.379</ele>
        <time>2014-06-07T12:59:48Z</time>
      </trkpt>
      <trkpt lat="56.3436932" lon="13.6366544">
        <ele>117.418</ele>
        <time>2014-06-07T12:59:57Z</time>
      </trkpt>
      <trkpt lat="56.343747" lon="13.6368966">
        <ele>117.418</ele>
        <time>2014-06-07T13:00:00Z</time>
      </trkpt>
      <trkpt lat="56.3438154" lon="13.6373949">
        <ele>118.379</ele>
        <time>2014-06-07T13:00:06Z</time>
      </trkpt>
      <trkpt lat="56.3438459" lon="13.6376236">
        <ele>118.86</ele>
        <time>2014-06-07T13:00:09Z</time>
      </trkpt>
      <trkpt lat="56.3439044" lon="13.6379134">
        <ele>118.379</ele>
        <time>2014-06-07T13:00:14Z</time>
      </trkpt>
      <trkpt lat="56.3440336" lon="13.6379398">
        <ele>118.379</ele>
        <time>2014-06-07T13:00:18Z</time>
      </trkpt>
      <trkpt lat="56.344306" lon="13.6379594">
        <ele>119.341</ele>
        <time>2014-06-07T13:00:26Z</time>
      </trkpt>
      <trkpt lat="56.3445213" lon="13.6379185">
        <ele>119.821</ele>
        <time>2014-06-07T13:00:32Z</time>
      </trkpt>
      <trkpt lat="56.3447789" lon="13.637863">
        <ele>120.302</ele>
        <time>2014-06-07T13:00:39Z</time>
      </trkpt>
      <trkpt lat="56.3451038" lon="13.6378179">
        <ele>120.302</ele>
        <time>2014-06-07T13:00:47Z</time>
      </trkpt>
      <trkpt lat="56.345145" lon="13.6378277">
        <ele>120.302</ele>
        <time>2014-06-07T13:00:48Z</time>
      </trkpt>
      <trkpt lat="56.3453099" lon="13.6379259">
        <ele>120.783</ele>
        <time>2014-06-07T13:00:52Z</time>
      </trkpt>
      <trkpt lat="56.345485" lon="13.6380201">
        <ele>120.302</ele>
        <time>2014-06-07T13:00:56Z</time>
      </trkpt>
      <trkpt lat="56.345569" lon="13.6382496">
        <ele>120.783</ele>
        <time>2014-06-07T13:01:00Z</time>
      </trkpt>
      <trkpt lat="56.345555" lon="13.6383225">
        <ele>120.783</ele>
        <time>2014-06-07T13:01:01Z</time>
      </trkpt>
      <trkpt lat="56.3454794" lon="13.6386831">
        <ele>120.783</ele>
        <time>2014-06-07T13:01:06Z</time>
      </trkpt>
      <trkpt lat="56.3454753" lon="13.6391631">
        <ele>121.264</ele>
        <time>2014-06-07T13:01:12Z</time>
      </trkpt>
      <trkpt lat="56.3455222" lon="13.639864">
        <ele>121.264</ele>
        <time>2014-06-07T13:01:20Z</time>
      </trkpt>
      <trkpt lat="56.345571" lon="13.64068">
        <ele>120.783</ele>
        <time>2014-06-07T13:01:29Z</time>
      </trkpt>
      <trkpt lat="56.3455898" lon="13.6412742">
        <ele>120.302</ele>
        <time>2014-06-07T13:01:36Z</time>
      </trkpt>
      <trkpt lat="56.345618" lon="13.6415908">
        <ele>120.783</ele>
        <time>2014-06-07T13:01:40Z</time>
      </trkpt>
      <trkpt lat="56.3457278" lon="13.6420419">
        <ele>120.302</ele>
        <time>2014-06-07T13:01:46Z</time>
      </trkpt>
      <trkpt lat="56.3459077" lon="13.6425778">
        <ele>119.821</ele>
        <time>2014-06-07T13:01:53Z</time>
      </trkpt>
      <trkpt lat="56.3459332" lon="13.6426551">
        <ele>119.821</ele>
        <time>2014-06-07T13:01:54Z</time>
      </trkpt>
      <trkpt lat="56.3460339" lon="13.6429473">
        <ele>119.341</ele>
        <time>2014-06-07T13:01:58Z</time>
      </trkpt>
      <trkpt lat="56.3460853" lon="13.6430856">
        <ele>118.86</ele>
        <time>2014-06-07T13:02:00Z</time>
      </trkpt>
      <trkpt lat="56.346189" lon="13.6434311">
        <ele>117.899</ele>
        <time>2014-06-07T13:02:05Z</time>
      </trkpt>
      <trkpt lat="56.3463776" lon="13.6438547">
        <ele>115.496</ele>
        <time>2014-06-07T13:02:12Z</time>
      </trkpt>
      <trkpt lat="56.3465735" lon="13.6441101">
        <ele>115.015</ele>
        <time>2014-06-07T13:02:17Z</time>
      </trkpt>
      <trkpt lat="56.3468137" lon="13.6443555">
        <ele>115.015</ele>
        <time>2014-06-07T13:02:23Z</time>
      </trkpt>
      <trkpt lat="56.346929" lon="13.6444584">
        <ele>115.015</ele>
        <time>2014-06-07T13:02:26Z</time>
      </trkpt>
      <trkpt lat="56.3470998" lon="13.6446282">
        <ele>115.015</ele>
        <time>2014-06-07T13:02:31Z</time>
      </trkpt>
      <trkpt lat="56.3472659" lon="13.6447483">
        <ele>115.976</ele>
        <time>2014-06-07T13:02:35Z</time>
      </trkpt>
      <trkpt lat="56.3474353" lon="13.6448096">
        <ele>115.976</ele>
        <time>2014-06-07T13:02:39Z</time>
      </trkpt>
      <trkpt lat="56.3475248" lon="13.6448511">
        <ele>116.457</ele>
        <time>2014-06-07T13:02:41Z</time>
      </trkpt>
      <trkpt lat="56.3478553" lon="13.6449683">
        <ele>117.418</ele>
        <time>2014-06-07T13:02:48Z</time>
      </trkpt>
      <trkpt lat="56.3481339" lon="13.6451314">
        <ele>117.899</ele>
        <time>2014-06-07T13:02:54Z</time>
      </trkpt>
      <trkpt lat="56.3483729" lon="13.6452801">
        <ele>118.86</ele>
        <time>2014-06-07T13:02:59Z</time>
      </trkpt>
      <trkpt lat="56.3487867" lon="13.6455491">
        <ele>119.821</ele>
        <time>2014-06-07T13:03:08Z</time>
      </trkpt>
      <trkpt lat="56.3490567" lon="13.6457058">
        <ele>120.302</ele>
        <time>2014-06-07T13:03:14Z</time>
      </trkpt>
      <trkpt lat="56.3491822" lon="13.6459175">
        <ele>119.341</ele>
        <time>2014-06-07T13:03:18Z</time>
      </trkpt>
      <trkpt lat="56.3491332" lon="13.6461364">
        <ele>119.341</ele>
        <time>2014-06-07T13:03:21Z</time>
      </trkpt>
      <trkpt lat="56.3490635" lon="13.6462288">
        <ele>118.86</ele>
        <time>2014-06-07T13:03:23Z</time>
      </trkpt>
      <trkpt lat="56.3489199" lon="13.6463822">
        <ele>118.86</ele>
        <time>2014-06-07T13:03:27Z</time>
      </trkpt>
    </trkseg>
  </trk>
</gpx>